Terminal Aerodrome Forecast
Issued by NWS Blacksburg, VA

Home | Current Version | Previous Version | Text Only | Print | Product List | Glossary On
Versions: 1 2 3 4 5 6 7 8 9 10 11 12 13
000
FTUS41 KRNK 252348
TAFDAN
TAF
KDAN 252348Z 2600/2624 09004KT P6SM OVC013
     FM260900 12005KT P6SM OVC009
     FM261500 14006KT P6SM OVC025
     FM261800 16007KT P6SM BKN035 OVC060=

USA.gov is the U.S. government's official web portal to all federal, state and local government web resources and services.